KWWD/WWD METAR and TAF weather

Enter ICAO airport designator
Station Type Date Time Source
KWWD METAR 2022/05/23 13:56 UTC NOAA

KWWD 231356Z AUTO 36008KT 10SM OVC038 18/12 A3020 RMK AO2 SLP228 T01830122 $


Station Type Date Time Source
KWWD Decoded METAR 2022/05/23 13:56 UTC NOAA

Wildwood, Cape May County Airport, NJ, United States (KWWD) 39-01N 074-55W
May 23, 2022 - 09:56 AM EDT / 2022.05.23 1356 UTC
Wind: from the N (360 degrees) at 9 MPH (8 KT):0
Visibility: 10 mile(s):0
Sky conditions: overcast
Temperature: 64.9 F (18.3 C)
Dew Point: 54.0 F (12.2 C)
Relative Humidity: 67%
Pressure (altimeter): 30.2 in. Hg (1022 hPa)
ob: KWWD 231356Z AUTO 36008KT 10SM OVC038 18/12 A3020 RMK AO2 SLP228 T01830122
cycle: 14

Station Type Date Time Source
KWWD TAF UTC NOAA

Error!

Example: see airport list